Time,TemperatureF,DewpointF,PressureIn,WindDirection,WindDirectionDegrees,WindSpeedMPH,WindSpeedGustMPH,Humidity,HourlyPrecipIn,Conditions,Clouds,dailyrainin,SolarRadiationWatts/m^2,SoftwareType,DateUTC
2013-10-02 00:22:00,45.0,29.0,-100.00,ESE,105,5.0,9.0,54,0.00,,,0.00,0.000000,,2013-10-02 06:22:00,
2013-10-02 00:32:00,45.0,29.0,-100.00,ESE,105,5.0,9.0,54,0.00,,,0.00,0.000000,,2013-10-02 06:32:00,
2013-10-02 00:42:00,45.0,29.0,-100.00,ESE,105,5.0,9.0,54,0.00,,,0.00,0.000000,,2013-10-02 06:42:00,
2013-10-02 00:52:00,45.0,29.0,-100.00,ESE,105,5.0,9.0,54,0.00,,,0.00,0.000000,,2013-10-02 06:52:00,
2013-10-02 01:01:00,45.0,29.0,-100.00,ESE,105,5.0,9.0,54,0.00,,,0.00,0.000000,,2013-10-02 07:01:00,
2013-10-02 01:22:00,46.0,31.0,-100.00,South,172,5.0,9.0,56,0.00,,,0.00,0.000000,,2013-10-02 07:22:00,
2013-10-02 01:32:00,46.0,31.0,-100.00,South,172,5.0,9.0,56,0.00,,,0.00,0.000000,,2013-10-02 07:32:00,
2013-10-02 01:42:00,46.0,31.0,-100.00,South,172,5.0,9.0,56,0.00,,,0.00,0.000000,,2013-10-02 07:42:00,
2013-10-02 01:52:00,46.0,31.0,-100.00,South,172,5.0,9.0,56,0.00,,,0.00,0.000000,,2013-10-02 07:52:00,
2013-10-02 02:02:00,46.0,31.0,-100.00,South,172,5.0,9.0,56,0.00,,,0.00,0.000000,,2013-10-02 08:02:00,
2013-10-02 02:22:00,42.0,28.0,-100.00,SSW,209,7.0,9.0,58,0.00,,,0.00,0.000000,,2013-10-02 08:22:00,
2013-10-02 02:32:00,42.0,28.0,-100.00,SSW,209,7.0,9.0,58,0.00,,,0.00,0.000000,,2013-10-02 08:32:00,
2013-10-02 02:42:00,42.0,28.0,-100.00,SSW,209,7.0,9.0,58,0.00,,,0.00,0.000000,,2013-10-02 08:42:00,
2013-10-02 02:52:00,42.0,28.0,-100.00,SSW,209,7.0,9.0,58,0.00,,,0.00,0.000000,,2013-10-02 08:52:00,
2013-10-02 03:01:00,42.0,28.0,-100.00,SSW,209,7.0,9.0,58,0.00,,,0.00,0.000000,,2013-10-02 09:01:00,
2013-10-02 03:43:00,41.0,29.0,-100.00,SW,217,7.0,9.0,63,0.00,,,0.00,0.000000,,2013-10-02 09:43:00,
2013-10-02 03:54:00,41.0,29.0,-100.00,SW,217,7.0,9.0,63,0.00,,,0.00,0.000000,,2013-10-02 09:54:00,
2013-10-02 04:02:00,41.0,29.0,-100.00,SW,217,7.0,9.0,63,0.00,,,0.00,0.000000,,2013-10-02 10:02:00,
2013-10-02 04:03:00,38.0,27.0,-100.00,NNW,336,3.0,12.0,64,0.00,,,0.00,0.000000,,2013-10-02 10:03:00,
2013-10-02 04:42:00,38.0,27.0,-100.00,NNW,336,3.0,12.0,64,0.00,,,0.00,0.000000,,2013-10-02 10:42:00,
2013-10-02 04:52:00,38.0,27.0,-100.00,NNW,336,3.0,12.0,64,0.00,,,0.00,0.000000,,2013-10-02 10:52:00,
2013-10-02 05:22:00,40.0,28.0,-100.00,West,279,4.0,9.0,61,0.00,,,0.00,0.000000,,2013-10-02 11:22:00,
2013-10-02 05:33:00,40.0,28.0,-100.00,West,279,4.0,9.0,61,0.00,,,0.00,0.000000,,2013-10-02 11:33:00,
2013-10-02 05:43:00,40.0,28.0,-100.00,West,279,4.0,9.0,61,0.00,,,0.00,0.000000,,2013-10-02 11:43:00,
2013-10-02 05:52:00,40.0,28.0,-100.00,West,279,4.0,9.0,61,0.00,,,0.00,0.000000,,2013-10-02 11:52:00,
2013-10-02 06:02:00,40.0,28.0,-100.00,West,279,4.0,9.0,61,0.00,,,0.00,0.000000,,2013-10-02 12:02:00,
2013-10-02 06:22:00,38.0,27.0,-100.00,NW,311,2.0,8.0,65,0.00,,,0.00,0.000000,,2013-10-02 12:22:00,
2013-10-02 06:32:00,38.0,27.0,-100.00,NW,311,2.0,8.0,65,0.00,,,0.00,0.000000,,2013-10-02 12:32:00,
2013-10-02 06:42:00,38.0,27.0,-100.00,NW,311,2.0,8.0,65,0.00,,,0.00,0.000000,,2013-10-02 12:42:00,
2013-10-02 06:52:00,38.0,27.0,-100.00,NW,311,2.0,8.0,65,0.00,,,0.00,0.000000,,2013-10-02 12:52:00,
2013-10-02 07:02:00,38.0,27.0,-100.00,NW,311,2.0,8.0,65,0.00,,,0.00,0.000000,,2013-10-02 13:02:00,
2013-10-02 07:42:00,36.0,26.0,-100.00,SW,234,3.0,8.0,68,0.00,,,0.00,0.000000,,2013-10-02 13:42:00,
2013-10-02 07:52:00,36.0,26.0,-100.00,SW,234,3.0,8.0,68,0.00,,,0.00,0.000000,,2013-10-02 13:52:00,
2013-10-02 08:02:00,36.0,26.0,-100.00,SW,234,3.0,8.0,68,0.00,,,0.00,0.000000,,2013-10-02 14:02:00,
2013-10-02 08:22:00,34.0,25.0,-100.00,WSW,239,4.0,8.0,70,0.00,,,0.00,9.000000,,2013-10-02 14:22:00,
2013-10-02 08:32:00,34.0,25.0,-100.00,WSW,239,4.0,8.0,70,0.00,,,0.00,9.000000,,2013-10-02 14:32:00,
2013-10-02 08:42:00,34.0,25.0,-100.00,WSW,239,4.0,8.0,70,0.00,,,0.00,9.000000,,2013-10-02 14:42:00,
2013-10-02 08:52:00,34.0,25.0,-100.00,WSW,239,4.0,8.0,70,0.00,,,0.00,9.000000,,2013-10-02 14:52:00,
2013-10-02 09:01:00,34.0,25.0,-100.00,WSW,239,4.0,8.0,70,0.00,,,0.00,9.000000,,2013-10-02 15:01:00,
2013-10-02 09:03:00,40.0,29.0,-100.00,SSE,157,3.0,9.0,65,0.00,,,-99.99,89.000000,,2013-10-02 15:03:00,
2013-10-02 09:22:00,40.0,29.0,-100.00,SSE,157,3.0,9.0,65,0.00,,,-99.99,89.000000,,2013-10-02 15:22:00,
2013-10-02 09:33:00,40.0,29.0,-100.00,SSE,157,3.0,9.0,65,0.00,,,-99.99,89.000000,,2013-10-02 15:33:00,
2013-10-02 09:43:00,40.0,29.0,-100.00,SSE,157,3.0,9.0,65,0.00,,,-99.99,89.000000,,2013-10-02 15:43:00,
2013-10-02 09:54:00,40.0,29.0,-100.00,SSE,157,3.0,9.0,65,0.00,,,-99.99,89.000000,,2013-10-02 15:54:00,
2013-10-02 10:52:00,46.0,27.0,-100.00,NNE,20,4.0,10.0,48,0.00,,,0.00,309.000000,,2013-10-02 16:52:00,
2013-10-02 11:02:00,46.0,27.0,-100.00,NNE,20,4.0,10.0,48,0.00,,,0.00,309.000000,,2013-10-02 17:02:00,
2013-10-02 11:42:00,48.0,25.0,-100.00,NE,50,7.0,12.0,40,0.00,,,-99.99,459.000000,,2013-10-02 17:42:00,
2013-10-02 11:52:00,48.0,25.0,-100.00,NE,50,7.0,12.0,40,0.00,,,-99.99,459.000000,,2013-10-02 17:52:00,
2013-10-02 12:02:00,48.0,25.0,-100.00,NE,50,7.0,12.0,40,0.00,,,-99.99,459.000000,,2013-10-02 18:02:00,
2013-10-02 12:22:00,48.0,24.0,-100.00,ENE,71,5.0,15.0,38,0.00,,,0.00,650.000000,,2013-10-02 18:22:00,
2013-10-02 12:32:00,48.0,24.0,-100.00,ENE,71,5.0,15.0,38,0.00,,,0.00,650.000000,,2013-10-02 18:32:00,
2013-10-02 12:42:00,48.0,24.0,-100.00,ENE,71,5.0,15.0,38,0.00,,,0.00,650.000000,,2013-10-02 18:42:00,
2013-10-02 12:52:00,48.0,24.0,-100.00,ENE,71,5.0,15.0,38,0.00,,,0.00,650.000000,,2013-10-02 18:52:00,
2013-10-02 13:02:00,48.0,24.0,-100.00,ENE,71,5.0,15.0,38,0.00,,,0.00,650.000000,,2013-10-02 19:02:00,
2013-10-02 13:22:00,50.0,25.0,-100.00,ENE,60,6.0,14.0,38,0.00,,,0.00,722.000000,,2013-10-02 19:22:00,
2013-10-02 13:32:00,50.0,25.0,-100.00,ENE,60,6.0,14.0,38,0.00,,,0.00,722.000000,,2013-10-02 19:32:00,
2013-10-02 13:42:00,50.0,25.0,-100.00,ENE,60,6.0,14.0,38,0.00,,,0.00,722.000000,,2013-10-02 19:42:00,
2013-10-02 13:52:00,50.0,25.0,-100.00,ENE,60,6.0,14.0,38,0.00,,,0.00,722.000000,,2013-10-02 19:52:00,
2013-10-02 14:02:00,50.0,25.0,-100.00,ENE,60,6.0,14.0,38,0.00,,,0.00,722.000000,,2013-10-02 20:02:00,
2013-10-02 14:22:00,51.0,24.0,-100.00,SE,131,3.0,12.0,35,0.00,,,0.00,642.000000,,2013-10-02 20:22:00,
2013-10-02 14:32:00,51.0,24.0,-100.00,SE,131,3.0,12.0,35,0.00,,,0.00,642.000000,,2013-10-02 20:32:00,
2013-10-02 14:42:00,51.0,24.0,-100.00,SE,131,3.0,12.0,35,0.00,,,0.00,642.000000,,2013-10-02 20:42:00,
2013-10-02 14:52:00,51.0,24.0,-100.00,SE,131,3.0,12.0,35,0.00,,,0.00,642.000000,,2013-10-02 20:52:00,
2013-10-02 15:01:00,51.0,24.0,-100.00,SE,131,3.0,12.0,35,0.00,,,0.00,642.000000,,2013-10-02 21:01:00,
2013-10-02 15:03:00,51.0,25.0,-100.00,SE,130,1.0,12.0,36,0.00,,,0.00,556.000000,,2013-10-02 21:03:00,
2013-10-02 15:44:00,51.0,25.0,-100.00,SE,130,1.0,12.0,36,0.00,,,0.00,556.000000,,2013-10-02 21:44:00,
2013-10-02 15:54:00,51.0,25.0,-100.00,SE,130,1.0,12.0,36,0.00,,,0.00,556.000000,,2013-10-02 21:54:00,
2013-10-02 16:03:00,52.0,26.0,-100.00,SSW,202,0.0,7.0,36,0.00,,,0.00,441.000000,,2013-10-02 22:03:00,
2013-10-02 16:44:00,52.0,26.0,-100.00,SSW,202,0.0,7.0,36,0.00,,,0.00,441.000000,,2013-10-02 22:44:00,
2013-10-02 16:53:00,52.0,26.0,-100.00,SSW,202,0.0,7.0,36,0.00,,,0.00,441.000000,,2013-10-02 22:53:00,
2013-10-02 17:42:00,52.0,27.0,-100.00,NE,46,2.0,8.0,37,0.00,,,0.00,321.000000,,2013-10-02 23:42:00,
2013-10-02 17:52:00,52.0,27.0,-100.00,NE,46,2.0,8.0,37,0.00,,,0.00,321.000000,,2013-10-02 23:52:00,
2013-10-02 18:02:00,52.0,27.0,-100.00,NE,46,2.0,8.0,37,0.00,,,0.00,321.000000,,2013-10-03 00:02:00,
2013-10-02 18:22:00,49.0,27.0,-100.00,North,354,0.0,6.0,42,0.00,,,0.00,134.000000,,2013-10-03 00:22:00,
2013-10-02 18:32:00,49.0,27.0,-100.00,North,354,0.0,6.0,42,0.00,,,0.00,134.000000,,2013-10-03 00:32:00,
2013-10-02 18:42:00,49.0,27.0,-100.00,North,354,0.0,6.0,42,0.00,,,0.00,134.000000,,2013-10-03 00:42:00,
2013-10-02 18:52:00,49.0,27.0,-100.00,North,354,0.0,6.0,42,0.00,,,0.00,134.000000,,2013-10-03 00:52:00,
2013-10-02 19:02:00,49.0,27.0,-100.00,North,354,0.0,6.0,42,0.00,,,0.00,134.000000,,2013-10-03 01:02:00,
2013-10-02 19:23:00,48.0,28.0,-100.00,WNW,287,2.0,6.0,45,0.00,,,0.00,45.000000,,2013-10-03 01:23:00,
2013-10-02 19:32:00,48.0,28.0,-100.00,WNW,287,2.0,6.0,45,0.00,,,0.00,45.000000,,2013-10-03 01:32:00,
2013-10-02 19:42:00,48.0,28.0,-100.00,WNW,287,2.0,6.0,45,0.00,,,0.00,45.000000,,2013-10-03 01:42:00,
2013-10-02 19:52:00,48.0,28.0,-100.00,WNW,287,2.0,6.0,45,0.00,,,0.00,45.000000,,2013-10-03 01:52:00,
2013-10-02 20:01:00,48.0,28.0,-100.00,WNW,287,2.0,6.0,45,0.00,,,0.00,45.000000,,2013-10-03 02:01:00,
2013-10-02 20:03:00,46.0,28.0,-100.00,WNW,282,0.0,7.0,50,0.00,,,0.00,0.000000,,2013-10-03 02:03:00,
2013-10-02 20:52:00,46.0,28.0,-100.00,WNW,282,0.0,7.0,50,0.00,,,0.00,0.000000,,2013-10-03 02:52:00,
2013-10-02 21:03:00,44.0,22.0,-100.00,ESE,106,1.0,5.0,42,0.00,,,0.00,0.000000,,2013-10-03 03:03:00,
2013-10-02 21:44:00,44.0,22.0,-100.00,ESE,106,1.0,5.0,42,0.00,,,0.00,0.000000,,2013-10-03 03:44:00,
2013-10-02 21:54:00,44.0,22.0,-100.00,ESE,106,1.0,5.0,42,0.00,,,0.00,0.000000,,2013-10-03 03:54:00,
2013-10-02 22:03:00,45.0,27.0,-100.00,SE,126,7.0,10.0,48,0.00,,,0.00,0.000000,,2013-10-03 04:03:00,
2013-10-02 22:44:00,45.0,27.0,-100.00,SE,126,7.0,10.0,48,0.00,,,0.00,0.000000,,2013-10-03 04:44:00,
2013-10-02 22:53:00,45.0,27.0,-100.00,SE,126,7.0,10.0,48,0.00,,,0.00,0.000000,,2013-10-03 04:53:00,
2013-10-02 23:23:00,41.0,31.0,-100.00,SSE,168,1.0,28.0,68,0.01,,,0.01,0.000000,,2013-10-03 05:23:00,
2013-10-02 23:33:00,41.0,31.0,-100.00,SSE,168,1.0,28.0,68,0.01,,,0.01,0.000000,,2013-10-03 05:33:00,
2013-10-02 23:43:00,41.0,31.0,-100.00,SSE,168,1.0,28.0,68,0.01,,,0.01,0.000000,,2013-10-03 05:43:00,
2013-10-02 23:52:00,41.0,31.0,-100.00,SSE,168,1.0,28.0,68,0.01,,,0.01,0.000000,,2013-10-03 05:52:00,